Igor I Sikorsky Memorial Airport
KBDR : now visible

Aeroporto :











RITROVATECI SU...

 
LOGIN :

Iscrizione | Disclaimer

   EN    FR    IT 

 









Sommario :    VFR   VFR Marginale   IFR   IFR Intensivo   IFR Molto Intensivo
Visibilità : 
Base nubi : 
>= 8 km
>= 3000ft
5 / 8 km
1000 / 3000 ft
1500m / 5 km
500 / 1000 ft
800 / 1500m
200 / 500 ft
< 800m
< 200 ft
Simboli :   Temporali  Nebbia  Neve Forte  Precipitazioni Forti  Vento > 20 kt







- Altitudine del aeroporto : 9 ft
- Codice IATA : BDR


KBDR - Igor I Sikorsky Memorial

ULTIMO METAR :
  • 222152Z 05007KT 10SM -RA OVC065 14/12 A2997 RMK AO2 SLP150 P0012 T01390122 $

METARs OBSOLETI :
  • 222104Z 07010KT 3SM RA BR BKN038 OVC065 14/12 A2998 RMK AO2 P0007 T01390117 $
  • 222052Z 06011KT 1 1/2SM +RA BR BKN036 OVC060 13/12 A2998 RMK AO2 SLP152 P0026 60035 T01330122 53004 $
  • 222036Z 05011KT 3SM RA BR FEW018 BKN045 OVC065 14/12 A2999 RMK AO2 P0014 T01390117 $
  • 222018Z 09010KT 2 1/2SM RA BR FEW015 BKN035 OVC070 13/12 A3000 RMK AO2 VIS 2V4 P0010 T01280117 $
  • 222005Z 12009KT 2SM +RA BR FEW004 BKN018 OVC035 13/12 A3000 RMK AO2 P0006 T01330122 $
  • 221952Z 15008KT 1 1/2SM +RA BR FEW003 BKN015 OVC033 12/11 A2999 RMK AO2 SLP154 P0007 T01220111 $

TAF KBDR
Valido dal 22 a 22 ore il 23 a 18 ore UTC


222143Z 2222/2318 33010KT 6SM -SHRA BR SCT015 OVC040
TEMPO 2222/2224 13010KT 3SM SHRA BR BKN015
FM230200 36008KT 6SM -SHRA BR SCT015 OVC035
FM230400 33005KT P6SM VCSH SCT015 SCT035 OVC070
FM230500 36006KT P6SM FEW030 BKN070
FM231600 23009KT P6SM SCT030 SCT250
FIR KZBW / America del Nord



MetMap, La meteo Aeronautica in un colpo d'occhio ! - Copyright ORBIFLY Dicembre 2007 - Disclaimer

ORBIFLY MET'MAP TEAM :

Programmazione e sviluppo : Alexandra Zaïnal
Concezione e sviluppo : Baudouin d'Aumeries
Co-Programmazione e sviluppo : Marc-Olivier Méhu
Supporto tecnico e logistico : Manuel Goepfert
Aiuto per la traduzione : Arnaldo La Scala

Contatto : metmap@orbifly.com




FONTI E CREDITI :

   NOAA       Earth
Advisory